createdAt,value
2018-08-08T00:02:37.047Z,11.43
2018-08-08T00:05:05.948Z,9.77
2018-08-08T00:07:34.760Z,9.90
2018-08-08T00:10:03.909Z,9.70
2018-08-08T01:03:02.324Z,11.03
2018-08-08T01:05:31.173Z,10.27
2018-08-08T01:08:00.017Z,9.37
2018-08-08T01:10:29.083Z,9.48
2018-08-08T02:02:37.542Z,13.97
2018-08-08T02:05:06.768Z,14.27
2018-08-08T02:07:35.610Z,11.97
2018-08-08T02:10:05.940Z,10.80
2018-08-08T03:02:39.226Z,13.80
2018-08-08T03:05:09.668Z,12.77
2018-08-08T03:07:38.829Z,12.00
2018-08-08T04:02:38.988Z,6.27
2018-08-08T04:05:07.824Z,6.40
2018-08-08T04:07:37.196Z,5.80
2018-08-08T05:02:40.861Z,6.73
2018-08-08T05:05:09.696Z,6.23
2018-08-08T05:07:38.846Z,6.20
2018-08-08T15:02:40.908Z,2.40
2018-08-08T15:05:10.904Z,2.43
2018-08-08T15:07:39.937Z,2.20
2018-08-08T16:02:43.126Z,1.97
2018-08-08T16:05:12.112Z,2.30
2018-08-08T16:07:40.934Z,2.30
2018-08-08T16:10:11.300Z,2.50
2018-08-08T17:02:36.728Z,2.20
2018-08-08T17:05:06.884Z,2.40
2018-08-08T17:07:36.044Z,2.23
2018-08-08T18:02:39.301Z,2.77
2018-08-08T18:05:08.223Z,2.70
2018-08-08T18:07:37.086Z,2.40
2018-08-08T18:10:07.694Z,3.22
2018-08-08T19:02:36.856Z,3.03
2018-08-08T19:05:05.826Z,3.23
2018-08-08T19:07:34.834Z,2.90
2018-08-08T19:10:04.454Z,2.90
2018-08-08T20:02:36.857Z,3.27
2018-08-08T20:05:05.760Z,3.17
2018-08-08T20:07:34.654Z,3.53
2018-08-08T20:10:03.632Z,3.60
2018-08-08T21:02:43.512Z,3.13
2018-08-08T21:05:12.444Z,3.00
2018-08-08T21:08:01.920Z,2.63
2018-08-08T22:03:20.362Z,3.07
2018-08-08T22:06:00.138Z,2.93
2018-08-08T22:08:40.076Z,3.13
2018-08-08T23:02:39.463Z,3.43
2018-08-08T23:05:08.416Z,3.00
2018-08-08T23:07:37.316Z,2.90
2018-08-08T23:10:07.377Z,3.40
